Time,TemperatureF,DewpointF,PressureIn,WindDirection,WindDirectionDegrees,WindSpeedMPH,WindSpeedGustMPH,Humidity,HourlyPrecipIn,Conditions,Clouds,dailyrainin,SoftwareType,DateUTC
2013-10-27 00:03:00,49.5,32.6,29.80,NW,315,1.1,-999.0,52,-99.99,,,0.00,Acu-Link.com,2013-10-27 04:03:00,
2013-10-27 00:18:00,49.1,34.1,29.80,NW,315,1.1,-999.0,56,-99.99,,,0.00,Acu-Link.com,2013-10-27 04:18:00,
2013-10-27 00:33:00,49.1,33.6,29.81,NW,315,0.0,-999.0,55,-99.99,,,0.00,Acu-Link.com,2013-10-27 04:33:00,
2013-10-27 00:49:00,48.9,33.0,29.80,SSE,157,2.2,-999.0,54,-99.99,,,0.00,Acu-Link.com,2013-10-27 04:49:00,
2013-10-27 01:04:00,48.7,32.8,29.80,SSE,157,1.7,-999.0,54,-99.99,,,0.00,Acu-Link.com,2013-10-27 05:04:00,
2013-10-27 01:19:00,48.4,33.4,29.81,SSE,157,1.1,-999.0,56,-99.99,,,0.00,Acu-Link.com,2013-10-27 05:19:00,
2013-10-27 01:34:00,48.4,33.9,29.80,SSE,157,0.0,-999.0,57,-99.99,,,0.00,Acu-Link.com,2013-10-27 05:34:00,
2013-10-27 01:49:00,48.0,33.9,29.80,SE,135,1.1,-999.0,58,-99.99,,,0.00,Acu-Link.com,2013-10-27 05:49:00,
2013-10-27 02:05:00,48.6,33.2,29.81,NW,315,1.7,-999.0,55,-99.99,,,0.00,Acu-Link.com,2013-10-27 06:05:00,
2013-10-27 02:20:00,50.2,33.3,29.80,West,270,1.7,-999.0,52,-99.99,,,0.00,Acu-Link.com,2013-10-27 06:20:00,
2013-10-27 02:35:00,49.6,33.2,29.81,West,270,2.2,-999.0,53,-99.99,,,0.00,Acu-Link.com,2013-10-27 06:35:00,
2013-10-27 02:50:00,50.2,32.8,29.80,WNW,292,3.7,-999.0,51,-99.99,,,0.00,Acu-Link.com,2013-10-27 06:50:00,
2013-10-27 03:05:00,50.9,32.9,29.81,West,270,3.7,-999.0,50,-99.99,,,0.00,Acu-Link.com,2013-10-27 07:05:00,
2013-10-27 03:20:00,50.9,32.9,29.80,WNW,292,1.1,-999.0,50,-99.99,,,0.00,Acu-Link.com,2013-10-27 07:20:00,
2013-10-27 03:36:00,50.9,33.4,29.79,NW,315,1.7,-999.0,51,-99.99,,,0.00,Acu-Link.com,2013-10-27 07:36:00,
2013-10-27 03:51:00,50.5,33.1,29.80,NNW,337,1.7,-999.0,51,-99.99,,,0.00,Acu-Link.com,2013-10-27 07:51:00,
2013-10-27 04:06:00,50.5,33.5,29.80,West,270,3.7,-999.0,52,-99.99,,,0.00,Acu-Link.com,2013-10-27 08:06:00,
2013-10-27 04:22:00,50.4,33.4,29.80,WNW,292,2.2,-999.0,52,-99.99,,,0.00,Acu-Link.com,2013-10-27 08:22:00,
2013-10-27 04:37:00,49.6,33.2,29.80,ENE,67,2.7,-999.0,53,-99.99,,,0.00,Acu-Link.com,2013-10-27 08:37:00,
2013-10-27 04:52:00,48.9,33.5,29.80,ENE,67,2.2,-999.0,55,-99.99,,,0.00,Acu-Link.com,2013-10-27 08:52:00,
2013-10-27 05:07:00,48.2,33.7,29.81,ENE,67,0.0,-999.0,57,-99.99,,,0.00,Acu-Link.com,2013-10-27 09:07:00,
2013-10-27 05:22:00,46.8,34.1,29.80,ENE,67,0.0,-999.0,61,-99.99,,,0.00,Acu-Link.com,2013-10-27 09:22:00,
2013-10-27 05:37:00,45.9,34.0,29.80,ENE,67,0.0,-999.0,63,-99.99,,,0.00,Acu-Link.com,2013-10-27 09:37:00,
2013-10-27 05:52:00,45.0,34.3,29.80,ENE,67,0.0,-999.0,66,-99.99,,,0.00,Acu-Link.com,2013-10-27 09:52:00,
2013-10-27 06:08:00,40.8,33.8,29.81,ENE,67,0.0,-999.0,76,-99.99,,,0.00,Acu-Link.com,2013-10-27 10:08:00,
2013-10-27 06:23:00,40.1,33.8,29.81,ENE,67,0.0,-999.0,78,-99.99,,,0.00,Acu-Link.com,2013-10-27 10:23:00,
2013-10-27 06:38:00,39.7,33.7,29.82,ENE,67,0.0,-999.0,79,-99.99,,,0.00,Acu-Link.com,2013-10-27 10:38:00,
2013-10-27 06:53:00,39.0,33.4,29.82,ENE,67,0.0,-999.0,80,-99.99,,,0.00,Acu-Link.com,2013-10-27 10:53:00,
2013-10-27 07:09:00,39.0,33.4,29.82,ENE,67,0.0,-999.0,80,-99.99,,,0.00,Acu-Link.com,2013-10-27 11:09:00,
2013-10-27 07:24:00,38.1,33.1,29.83,ENE,67,0.0,-999.0,82,-99.99,,,0.00,Acu-Link.com,2013-10-27 11:24:00,
2013-10-27 07:39:00,37.6,32.9,29.83,ENE,67,0.0,-999.0,83,-99.99,,,0.00,Acu-Link.com,2013-10-27 11:39:00,
2013-10-27 07:54:00,37.0,32.6,29.84,ENE,67,0.0,-999.0,84,-99.99,,,0.00,Acu-Link.com,2013-10-27 11:54:00,
2013-10-27 08:09:00,37.0,32.6,29.85,ENE,67,0.0,-999.0,84,-99.99,,,0.00,Acu-Link.com,2013-10-27 12:09:00,
2013-10-27 08:24:00,36.9,32.8,29.85,ENE,67,0.0,-999.0,85,-99.99,,,0.00,Acu-Link.com,2013-10-27 12:24:00,
2013-10-27 08:39:00,36.9,32.8,29.87,ENE,67,0.0,-999.0,85,-99.99,,,0.00,Acu-Link.com,2013-10-27 12:39:00,
2013-10-27 08:54:00,37.2,33.4,29.86,ENE,67,0.0,-999.0,86,-99.99,,,0.00,Acu-Link.com,2013-10-27 12:54:00,
2013-10-27 09:09:00,38.1,34.3,29.87,ENE,67,0.0,-999.0,86,-99.99,,,0.00,Acu-Link.com,2013-10-27 13:09:00,
2013-10-27 09:24:00,40.3,36.7,29.88,ENE,67,0.0,-999.0,87,-99.99,,,0.00,Acu-Link.com,2013-10-27 13:24:00,
2013-10-27 09:40:00,42.8,36.7,29.88,ENE,67,1.7,-999.0,79,-99.99,,,0.00,Acu-Link.com,2013-10-27 13:40:00,
2013-10-27 09:55:00,48.4,38.0,29.88,ENE,67,0.0,-999.0,67,-99.99,,,0.00,Acu-Link.com,2013-10-27 13:55:00,
2013-10-27 10:10:00,50.4,37.9,29.88,ENE,67,0.0,-999.0,62,-99.99,,,0.00,Acu-Link.com,2013-10-27 14:10:00,
2013-10-27 10:25:00,52.9,37.2,29.88,ENE,67,0.0,-999.0,55,-99.99,,,0.00,Acu-Link.com,2013-10-27 14:25:00,
2013-10-27 10:40:00,53.8,36.6,29.87,ENE,67,0.0,-999.0,52,-99.99,,,0.00,Acu-Link.com,2013-10-27 14:40:00,
2013-10-27 10:55:00,55.4,36.6,29.87,SSW,202,1.7,-999.0,49,-99.99,,,0.00,Acu-Link.com,2013-10-27 14:55:00,
2013-10-27 11:10:00,56.7,35.6,29.87,NW,315,2.2,-999.0,45,-99.99,,,0.00,Acu-Link.com,2013-10-27 15:10:00,
2013-10-27 11:25:00,57.6,35.9,29.87,SSW,202,3.2,-999.0,44,-99.99,,,0.00,Acu-Link.com,2013-10-27 15:25:00,
2013-10-27 11:40:00,58.6,35.6,29.86,North,0,1.7,-999.0,42,-99.99,,,0.00,Acu-Link.com,2013-10-27 15:40:00,
2013-10-27 11:56:00,59.0,35.9,29.86,SE,135,2.7,-999.0,42,-99.99,,,0.00,Acu-Link.com,2013-10-27 15:56:00,
2013-10-27 12:11:00,59.5,35.8,29.86,NW,315,1.1,-999.0,41,-99.99,,,0.00,Acu-Link.com,2013-10-27 16:11:00,
2013-10-27 12:26:00,62.1,37.5,29.86,ENE,67,2.2,-999.0,40,-99.99,,,0.00,Acu-Link.com,2013-10-27 16:26:00,
2013-10-27 12:41:00,61.7,37.1,29.84,North,0,1.7,-999.0,40,-99.99,,,0.00,Acu-Link.com,2013-10-27 16:41:00,
2013-10-27 12:56:00,65.1,38.2,29.84,SW,225,2.2,-999.0,37,-99.99,,,0.00,Acu-Link.com,2013-10-27 16:56:00,
2013-10-27 13:12:00,64.4,38.9,29.83,SW,225,3.7,-999.0,39,-99.99,,,0.00,Acu-Link.com,2013-10-27 17:12:00,
2013-10-27 13:27:00,64.6,37.7,29.83,West,270,3.7,-999.0,37,-99.99,,,0.00,Acu-Link.com,2013-10-27 17:27:00,
2013-10-27 13:42:00,65.7,38.0,29.81,North,0,1.7,-999.0,36,-99.99,,,0.00,Acu-Link.com,2013-10-27 17:42:00,
2013-10-27 13:57:00,66.6,38.8,29.81,SW,225,1.7,-999.0,36,-99.99,,,0.00,Acu-Link.com,2013-10-27 17:57:00,
2013-10-27 14:12:00,66.7,37.4,29.79,SSW,202,2.2,-999.0,34,-99.99,,,0.00,Acu-Link.com,2013-10-27 18:12:00,
2013-10-27 14:27:00,69.1,38.0,29.79,SSW,202,1.7,-999.0,32,-99.99,,,0.00,Acu-Link.com,2013-10-27 18:27:00,
2013-10-27 14:42:00,68.0,37.0,29.79,West,270,5.3,-999.0,32,-99.99,,,0.00,Acu-Link.com,2013-10-27 18:42:00,
2013-10-27 14:57:00,66.6,36.6,29.78,South,180,2.7,-999.0,33,-99.99,,,0.00,Acu-Link.com,2013-10-27 18:57:00,
2013-10-27 15:13:00,68.0,36.2,29.77,SSE,157,1.7,-999.0,31,-99.99,,,0.00,Acu-Link.com,2013-10-27 19:13:00,
2013-10-27 15:28:00,67.5,36.6,29.77,SW,225,3.7,-999.0,32,-99.99,,,0.00,Acu-Link.com,2013-10-27 19:28:00,
2013-10-27 15:43:00,68.0,36.2,29.77,South,180,3.7,-999.0,31,-99.99,,,0.00,Acu-Link.com,2013-10-27 19:43:00,
2013-10-27 15:58:00,67.6,35.1,29.77,WSW,247,2.7,-999.0,30,-99.99,,,0.00,Acu-Link.com,2013-10-27 19:58:00,
2013-10-27 16:13:00,68.9,36.2,29.76,SSW,202,0.0,-999.0,30,-99.99,,,0.00,Acu-Link.com,2013-10-27 20:13:00,
2013-10-27 16:28:00,68.9,34.4,29.77,West,270,1.7,-999.0,28,-99.99,,,0.00,Acu-Link.com,2013-10-27 20:28:00,
2013-10-27 16:43:00,67.8,35.2,29.77,SW,225,3.2,-999.0,30,-99.99,,,0.00,Acu-Link.com,2013-10-27 20:43:00,
2013-10-27 16:58:00,67.6,35.1,29.76,WSW,247,1.1,-999.0,30,-99.99,,,0.00,Acu-Link.com,2013-10-27 20:58:00,
2013-10-27 17:13:00,67.3,36.4,29.77,WSW,247,1.1,-999.0,32,-99.99,,,0.00,Acu-Link.com,2013-10-27 21:13:00,
2013-10-27 17:29:00,66.7,37.4,29.76,SW,225,2.2,-999.0,34,-99.99,,,0.00,Acu-Link.com,2013-10-27 21:29:00,
2013-10-27 17:44:00,65.7,40.1,29.77,SSW,202,2.7,-999.0,39,-99.99,,,0.00,Acu-Link.com,2013-10-27 21:44:00,
2013-10-27 17:59:00,64.4,40.8,29.78,SW,225,0.0,-999.0,42,-99.99,,,0.00,Acu-Link.com,2013-10-27 21:59:00,
2013-10-27 18:14:00,63.1,41.4,29.78,SW,225,0.0,-999.0,45,-99.99,,,0.00,Acu-Link.com,2013-10-27 22:14:00,
2013-10-27 18:29:00,60.8,41.5,29.78,SW,225,1.7,-999.0,49,-99.99,,,0.00,Acu-Link.com,2013-10-27 22:29:00,
2013-10-27 18:44:00,59.4,41.8,29.79,SW,225,0.0,-999.0,52,-99.99,,,0.00,Acu-Link.com,2013-10-27 22:44:00,
2013-10-27 18:59:00,59.2,42.1,29.79,WSW,247,1.7,-999.0,53,-99.99,,,0.00,Acu-Link.com,2013-10-27 22:59:00,
2013-10-27 19:14:00,59.0,41.9,29.80,WSW,247,2.2,-999.0,53,-99.99,,,0.00,Acu-Link.com,2013-10-27 23:14:00,
2013-10-27 19:29:00,58.6,42.0,29.81,WSW,247,0.0,-999.0,54,-99.99,,,0.00,Acu-Link.com,2013-10-27 23:29:00,
2013-10-27 19:45:00,57.6,42.5,29.81,WSW,247,1.7,-999.0,57,-99.99,,,0.00,Acu-Link.com,2013-10-27 23:45:00,
2013-10-27 20:00:00,55.9,43.1,29.81,WSW,247,0.0,-999.0,62,-99.99,,,0.00,Acu-Link.com,2013-10-28 00:00:00,
2013-10-27 20:15:00,54.5,43.0,29.82,WSW,247,0.0,-999.0,65,-99.99,,,0.00,Acu-Link.com,2013-10-28 00:15:00,
2013-10-27 20:30:00,52.9,42.6,29.82,WSW,247,0.0,-999.0,68,-99.99,,,0.00,Acu-Link.com,2013-10-28 00:30:00,
2013-10-27 20:45:00,51.8,42.7,29.83,WSW,247,1.7,-999.0,71,-99.99,,,0.00,Acu-Link.com,2013-10-28 00:45:00,
2013-10-27 21:00:00,50.7,42.4,29.83,WSW,247,0.0,-999.0,73,-99.99,,,0.00,Acu-Link.com,2013-10-28 01:00:00,
2013-10-27 21:15:00,50.0,41.7,29.83,WSW,247,0.0,-999.0,73,-99.99,,,0.00,Acu-Link.com,2013-10-28 01:15:00,
2013-10-27 21:30:00,49.5,40.9,29.84,WSW,247,0.0,-999.0,72,-99.99,,,0.00,Acu-Link.com,2013-10-28 01:30:00,
2013-10-27 21:45:00,48.9,40.3,29.85,WSW,247,1.1,-999.0,72,-99.99,,,0.00,Acu-Link.com,2013-10-28 01:45:00,
2013-10-27 22:00:00,48.0,40.1,29.84,WSW,247,0.0,-999.0,74,-99.99,,,0.00,Acu-Link.com,2013-10-28 02:00:00,
2013-10-27 22:16:00,47.5,39.6,29.85,WSW,247,1.1,-999.0,74,-99.99,,,0.00,Acu-Link.com,2013-10-28 02:16:00,
2013-10-27 22:31:00,46.8,39.0,29.85,WSW,247,0.0,-999.0,74,-99.99,,,0.00,Acu-Link.com,2013-10-28 02:31:00,
2013-10-27 22:46:00,46.2,38.7,29.86,WSW,247,0.0,-999.0,75,-99.99,,,0.00,Acu-Link.com,2013-10-28 02:46:00,
2013-10-27 23:01:00,45.9,39.1,29.86,WSW,247,0.0,-999.0,77,-99.99,,,0.00,Acu-Link.com,2013-10-28 03:01:00,
2013-10-27 23:16:00,45.3,38.5,29.87,WSW,247,0.0,-999.0,77,-99.99,,,0.00,Acu-Link.com,2013-10-28 03:16:00,
2013-10-27 23:31:00,45.0,38.2,29.86,WSW,247,0.0,-999.0,77,-99.99,,,0.00,Acu-Link.com,2013-10-28 03:31:00,
2013-10-27 23:46:00,45.0,38.6,29.87,WSW,247,0.0,-999.0,78,-99.99,,,0.00,Acu-Link.com,2013-10-28 03:46:00,